Time;durP1;ratioP1;P1;durP2;ratioP2;P2;SDS_P1;SDS_P2;PMS_P1;PMS_P2;Temp;Humidity;BMP_temperature;BMP_pressure;BME280_temperature;BME280_humidity;BME280_pressure;Samples;Min_cycle;Max_cycle;Signal;HPM_P1;HPM_P2
2022/11/04 00:01:47;;;;;;;0.10;0.10;;;;;;;-0.70;77.71;99805.41;6182920;23;20336;-65
2022/11/04 00:04:14;;;;;;;0.10;0.10;;;;;;;-0.72;77.79;99794.03;6218270;23;20031;-64
2022/11/04 00:06:40;;;;;;;0.10;0.10;;;;;;;-0.74;77.90;99796.94;6234523;23;20027;-64
2022/11/04 00:09:10;;;;;;;0.10;0.10;;;;;;;-0.76;77.88;99804.34;6246344;23;20024;-64
2022/11/04 00:14:20;;;;;;;0.10;0.10;;;;;;;-0.75;78.05;99803.31;6241851;23;20042;-64
2022/11/04 00:30:31;;;;;;;0.10;0.10;;;;;;;-0.77;77.81;99797.34;6245727;23;20047;-67
2022/11/04 00:35:48;;;;;;;0.10;0.10;;;;;;;-0.77;77.79;99788.44;6242734;23;20024;-69
2022/11/04 00:38:14;;;;;;;0.10;0.10;;;;;;;-0.84;77.66;99788.41;6243372;23;20190;-69
2022/11/04 00:40:41;;;;;;;0.10;0.10;;;;;;;-0.84;77.84;99796.47;6182242;23;20024;-70
2022/11/04 00:43:07;;;;;;;0.10;0.10;;;;;;;-0.84;77.73;99784.91;6228832;23;20447;-69
2022/11/04 00:45:33;;;;;;;0.10;0.10;;;;;;;-0.80;77.96;99789.66;6234334;23;20055;-68
2022/11/04 00:47:59;;;;;;;0.10;0.10;;;;;;;-0.77;77.89;99783.06;6235382;23;20495;-68
2022/11/04 00:50:25;;;;;;;0.10;0.10;;;;;;;-0.69;77.59;99782.91;6238847;23;20396;-68
2022/11/04 00:52:51;;;;;;;0.10;0.10;;;;;;;-0.65;77.42;99789.53;6210289;23;20044;-68
2022/11/04 00:55:17;;;;;;;0.10;0.10;;;;;;;-0.67;77.44;99790.75;6239675;23;20091;-69
2022/11/04 00:57:44;;;;;;;0.10;0.10;;;;;;;-0.71;77.60;99793.00;6234506;23;20016;-68
2022/11/04 01:00:11;;;;;;;0.10;0.10;;;;;;;-0.76;77.55;99782.88;6217960;23;20020;-69
2022/11/04 01:02:37;;;;;;;0.17;0.17;;;;;;;-0.69;77.59;99784.75;6235039;23;20023;-68
2022/11/04 01:05:04;;;;;;;0.13;0.13;;;;;;;-0.68;77.59;99784.56;6235644;23;20047;-68
2022/11/04 01:07:30;;;;;;;0.10;0.10;;;;;;;-0.67;77.50;99783.53;6206858;23;20022;-68
2022/11/04 01:09:56;;;;;;;0.10;0.10;;;;;;;-0.67;77.46;99780.84;6243025;23;20412;-69
2022/11/04 01:12:22;;;;;;;0.10;0.10;;;;;;;-0.67;77.55;99780.84;6244488;23;20047;-69
2022/11/04 01:14:49;;;;;;;0.10;0.10;;;;;;;-0.63;77.59;99781.25;6243302;23;20024;-69
2022/11/04 01:17:16;;;;;;;0.13;0.13;;;;;;;-0.61;77.42;99774.66;6207347;23;20423;-68
2022/11/04 01:19:43;;;;;;;0.10;0.10;;;;;;;-0.60;77.27;99770.13;6247299;23;20031;-67
2022/11/04 01:22:09;;;;;;;0.17;0.17;;;;;;;-0.58;77.29;99773.44;6233229;23;20028;-64
2022/11/04 01:24:35;;;;;;;0.10;0.10;;;;;;;-0.57;77.20;99769.72;6208140;23;20475;-65
2022/11/04 01:27:01;;;;;;;0.10;0.10;;;;;;;-0.57;77.36;99775.09;6180295;23;20020;-64
2022/11/04 01:29:27;;;;;;;0.10;0.10;;;;;;;-0.59;77.33;99777.16;6234379;23;20020;-64
2022/11/04 01:31:55;;;;;;;0.10;0.10;;;;;;;-0.59;77.49;99769.09;6234357;23;20027;-65
2022/11/04 01:34:21;;;;;;;0.10;0.10;;;;;;;-0.59;77.20;99782.53;6217757;23;20032;-65
2022/11/04 01:36:47;;;;;;;0.10;0.10;;;;;;;-0.57;77.14;99780.47;6194290;23;20024;-64
2022/11/04 01:39:12;;;;;;;0.10;0.10;;;;;;;-0.59;77.34;99779.84;6183127;23;20024;-66
2022/11/04 01:41:39;;;;;;;0.47;0.13;;;;;;;-0.54;77.21;99782.72;6245201;23;20086;-65
2022/11/04 01:44:38;;;;;;;0.10;0.10;;;;;;;-0.58;77.48;99787.66;6246557;23;20020;-64
2022/11/04 01:47:13;;;;;;;0.10;0.10;;;;;;;-0.61;77.30;99792.63;6233722;23;20024;-69
2022/11/04 01:49:39;;;;;;;0.10;0.10;;;;;;;-0.61;77.37;99787.28;6243376;23;20095;-68
2022/11/04 01:52:09;;;;;;;0.00;0.00;;;;;;;-0.58;77.58;99784.97;6242630;23;20020;-68
2022/11/04 01:54:37;;;;;;;0.10;0.10;;;;;;;-0.61;77.57;99777.34;6236049;23;20017;-68
2022/11/04 01:57:07;;;;;;;0.10;0.10;;;;;;;-0.61;77.35;99782.72;6236012;23;20151;-69
2022/11/04 01:59:37;;;;;;;0.10;0.10;;;;;;;-0.61;77.43;99780.03;6235525;23;20115;-68
2022/11/04 02:02:05;;;;;;;0.00;0.00;;;;;;;-0.62;77.49;99778.38;6248617;23;20028;-64
2022/11/04 02:04:32;;;;;;;0.45;0.10;;;;;;;-0.60;77.10;99781.69;6220282;23;20274;-64
2022/11/04 02:07:01;;;;;;;0.10;0.10;;;;;;;-0.62;77.00;99783.75;6209865;23;20119;-65
2022/11/04 02:09:30;;;;;;;0.10;0.10;;;;;;;-0.62;76.80;99785.63;6237037;23;20050;-64
2022/11/04 02:14:42;;;;;;;0.10;0.10;;;;;;;-0.64;76.84;99787.66;6238585;23;20296;-64
2022/11/04 02:17:26;;;;;;;0.10;0.10;;;;;;;-0.68;76.80;99786.41;6208094;23;20360;-64
2022/11/04 02:20:06;;;;;;;0.10;0.10;;;;;;;-0.68;76.92;99776.50;6222477;23;20016;-64
2022/11/04 02:23:24;;;;;;;0.10;0.10;;;;;;;-0.65;76.64;99781.47;6234789;23;20035;-64
2022/11/04 02:26:26;;;;;;;0.10;0.10;;;;;;;-0.63;76.30;99786.63;6237735;23;20071;-64
2022/11/04 02:29:16;;;;;;;0.03;0.03;;;;;;;-0.66;76.30;99778.97;6238338;23;20047;-65
2022/11/04 02:31:52;;;;;;;0.10;0.10;;;;;;;-0.65;76.32;99778.78;6221122;23;20016;-65
2022/11/04 02:34:24;;;;;;;0.10;0.10;;;;;;;-0.63;76.36;99779.41;6208960;23;20447;-65
2022/11/04 02:36:59;;;;;;;0.70;0.15;;;;;;;-0.59;76.42;99777.16;6245461;23;20074;-69
2022/11/04 02:39:36;;;;;;;0.45;0.10;;;;;;;-0.55;76.33;99770.34;6244589;23;20561;-69
2022/11/04 02:42:10;;;;;;;0.10;0.10;;;;;;;-0.51;76.26;99768.88;6236085;23;20143;-68
2022/11/04 02:44:44;;;;;;;0.10;0.10;;;;;;;-0.48;75.86;99767.66;6234215;23;20490;-69
2022/11/04 02:47:14;;;;;;;0.10;0.10;;;;;;;-0.49;75.87;99774.88;6210679;23;20024;-69
2022/11/04 02:49:47;;;;;;;0.10;0.10;;;;;;;-0.58;75.63;99754.63;6185177;23;20478;-69
2022/11/04 02:52:16;;;;;;;0.10;0.10;;;;;;;-0.47;75.61;99766.63;6245383;23;20042;-69
2022/11/04 02:54:47;;;;;;;0.13;0.10;;;;;;;-0.46;75.23;99766.44;6220655;23;20020;-69
2022/11/04 02:57:19;;;;;;;0.10;0.10;;;;;;;-0.48;75.15;99773.84;6220264;23;20513;-69
2022/11/04 02:59:51;;;;;;;0.13;0.13;;;;;;;-0.49;74.91;99780.25;6237355;23;20020;-70
2022/11/04 03:02:22;;;;;;;0.10;0.10;;;;;;;-0.51;75.25;99776.94;6233106;23;20363;-69
2022/11/04 03:04:51;;;;;;;0.32;0.10;;;;;;;-0.49;75.03;99777.56;6234857;23;20020;-68
2022/11/04 03:07:23;;;;;;;0.10;0.10;;;;;;;-0.48;75.10;99775.72;6244508;23;20073;-68
2022/11/04 03:09:52;;;;;;;0.10;0.10;;;;;;;-0.49;75.07;99774.88;6236218;23;20050;-69
2022/11/04 03:12:26;;;;;;;0.10;0.10;;;;;;;-0.52;75.14;99772.59;6217513;23;20565;-69
2022/11/04 03:14:58;;;;;;;0.10;0.10;;;;;;;-0.53;75.02;99772.81;6244214;23;20024;-69
2022/11/04 03:17:31;;;;;;;0.10;0.10;;;;;;;-0.51;75.13;99779.63;6237182;23;20020;-69
2022/11/04 03:19:59;;;;;;;0.10;0.10;;;;;;;-0.48;75.10;99771.16;6245809;23;20020;-69
2022/11/04 03:22:26;;;;;;;;;;;;;;;-0.46;74.76;99771.81;6236192;23;20111;-69
2022/11/04 03:24:52;;;;;;;0.10;0.10;;;;;;;-0.49;74.56;99774.88;6244014;23;19926;-69
2022/11/04 03:27:23;;;;;;;0.10;0.10;;;;;;;-0.59;74.75;99771.78;6215729;23;20020;-68
2022/11/04 03:29:58;;;;;;;0.10;0.10;;;;;;;-0.63;74.95;99767.81;6207456;23;20024;-68
2022/11/04 03:32:35;;;;;;;0.00;0.00;;;;;;;-0.63;74.88;99767.81;6233577;23;20020;-69
2022/11/04 03:35:01;;;;;;;0.10;0.10;;;;;;;-0.59;74.57;99771.78;6244201;23;20368;-68
2022/11/04 03:37:27;;;;;;;0.10;0.10;;;;;;;-0.53;74.52;99772.81;6247638;23;20463;-68
2022/11/04 03:39:53;;;;;;;0.10;0.10;;;;;;;-0.50;73.85;99769.72;6209792;23;20516;-68
2022/11/04 03:42:21;;;;;;;0.10;0.10;;;;;;;-0.50;73.91;99778.59;6233969;23;20069;-68
2022/11/04 03:44:49;;;;;;;0.10;0.10;;;;;;;-0.49;74.02;99780.25;6245007;23;20024;-64
2022/11/04 03:47:18;;;;;;;0.10;0.10;;;;;;;-0.47;73.69;99777.38;6234925;23;20020;-64
2022/11/04 03:49:45;;;;;;;0.10;0.10;;;;;;;-0.52;73.79;99775.28;6246096;23;20079;-68
2022/11/04 03:52:11;;;;;;;0.10;0.10;;;;;;;-0.50;73.69;99772.41;6248768;23;20026;-68
2022/11/04 03:54:38;;;;;;;0.10;0.10;;;;;;;-0.52;73.64;99775.28;6239430;23;20184;-68
2022/11/04 03:57:38;;;;;;;0.10;0.10;;;;;;;-0.50;73.65;99781.28;6237700;23;20627;-68
2022/11/04 04:00:11;;;;;;;0.65;0.10;;;;;;;-0.50;73.49;99783.97;6239505;23;20052;-68
2022/11/04 04:02:50;;;;;;;0.10;0.10;;;;;;;-0.53;73.28;99779.00;6183685;23;20031;-69
2022/11/04 04:05:22;;;;;;;0.10;0.10;;;;;;;-0.53;73.65;99778.19;6245922;23;20034;-68
2022/11/04 04:07:55;;;;;;;0.98;0.10;;;;;;;-0.51;73.48;99778.81;6243545;23;20020;-69
2022/11/04 04:10:40;;;;;;;0.15;0.10;;;;;;;-0.56;73.64;99776.72;6245373;23;20078;-68
2022/11/04 04:13:17;;;;;;;0.25;0.10;;;;;;;-0.54;73.34;99780.03;6245685;23;20467;-68
2022/11/04 04:15:49;;;;;;;0.00;0.00;;;;;;;-0.52;72.99;99783.34;6240144;23;20074;-64
2022/11/04 04:18:23;;;;;;;0.10;0.10;;;;;;;-0.55;73.21;99783.75;6209470;23;20534;-64
2022/11/04 04:20:53;;;;;;;0.00;0.00;;;;;;;-0.51;72.93;99781.50;6235519;23;20024;-64
2022/11/04 04:28:56;;;;;;;0.10;0.10;;;;;;;-0.53;72.58;99783.56;6247014;23;20020;-64
2022/11/04 04:34:10;;;;;;;0.10;0.10;;;;;;;-0.47;72.75;99780.91;6183010;23;20070;-64
2022/11/04 04:36:42;;;;;;;0.10;0.10;;;;;;;-0.38;72.50;99781.56;6246442;23;20286;-68
2022/11/04 04:47:32;;;;;;;0.10;0.10;;;;;;;-0.43;71.94;99790.22;6246834;23;20111;-68
2022/11/04 04:50:01;;;;;;;0.10;0.10;;;;;;;-0.47;71.88;99796.19;6236767;23;20082;-68
2022/11/04 04:52:31;;;;;;;0.10;0.10;;;;;;;-0.51;71.97;99782.31;6233222;23;20020;-69
2022/11/04 04:54:57;;;;;;;0.10;0.10;;;;;;;-0.75;72.10;99752.31;6231756;23;20070;-69
2022/11/04 04:57:23;;;;;;;0.10;0.10;;;;;;;-0.48;71.66;99794.53;6231641;23;20023;-69
2022/11/04 04:59:49;;;;;;;0.10;0.10;;;;;;;-0.50;71.75;99800.09;6207851;23;20039;-69
2022/11/04 05:02:15;;;;;;;0.10;0.10;;;;;;;-0.50;71.80;99800.09;6220278;23;20028;-69
2022/11/04 05:04:41;;;;;;;0.10;0.10;;;;;;;-0.46;71.87;99795.16;6220967;23;20027;-69
2022/11/04 05:07:09;;;;;;;0.10;0.10;;;;;;;-0.40;71.61;99798.91;6246833;23;20016;-69
2022/11/04 05:09:35;;;;;;;0.10;0.10;;;;;;;-0.38;71.57;99803.03;6245416;23;20111;-69
2022/11/04 05:12:01;;;;;;;0.25;0.20;;;;;;;-0.37;71.53;99806.53;6219122;23;20150;-69
2022/11/04 05:14:28;;;;;;;0.10;0.10;;;;;;;-0.37;71.41;99807.38;6244911;23;20161;-69
2022/11/04 05:16:54;;;;;;;0.10;0.10;;;;;;;-0.50;71.46;99789.34;6206858;23;20031;-68
2022/11/04 05:19:20;;;;;;;0.20;0.20;;;;;;;-0.41;71.75;99805.31;6247948;23;20020;-68
2022/11/04 05:21:46;;;;;;;0.10;0.10;;;;;;;-0.39;71.69;99809.44;6236855;23;20024;-68
2022/11/04 05:24:13;;;;;;;0.90;0.30;;;;;;;-0.40;71.62;99801.59;6244296;23;20490;-68
2022/11/04 05:26:39;;;;;;;0.00;0.00;;;;;;;-0.50;71.55;99786.66;6218419;23;20028;-69
2022/11/04 05:29:05;;;;;;;0.10;0.10;;;;;;;-0.38;71.56;99802.19;6218900;23;20066;-69
2022/11/04 05:31:31;;;;;;;0.10;0.10;;;;;;;-0.35;71.27;99807.16;6160039;23;20100;-69
2022/11/04 05:33:58;;;;;;;0.20;0.20;;;;;;;-0.34;71.34;99809.66;6237858;23;20024;-69
2022/11/04 05:36:24;;;;;;;0.10;0.10;;;;;;;-0.32;71.12;99810.28;6209704;23;20024;-68
2022/11/04 05:38:52;;;;;;;0.10;0.10;;;;;;;-0.27;70.93;99814.22;6236571;23;20364;-69
2022/11/04 05:41:25;;;;;;;0.38;0.10;;;;;;;-0.31;71.06;99814.63;6209248;23;20024;-69
2022/11/04 05:43:51;;;;;;;0.10;0.10;;;;;;;-0.32;70.99;99814.81;6239031;23;20055;-69
2022/11/04 05:46:17;;;;;;;0.10;0.10;;;;;;;-0.29;71.05;99814.44;6248813;23;20546;-69
2022/11/04 05:48:43;;;;;;;0.10;0.10;;;;;;;-0.26;70.84;99822.09;6221618;23;20048;-69
2022/11/04 05:51:12;;;;;;;0.10;0.10;;;;;;;-0.27;70.94;99823.13;6248853;23;20024;-69
2022/11/04 05:53:38;;;;;;;0.10;0.10;;;;;;;-0.27;70.77;99823.13;6241249;23;20020;-65
2022/11/04 05:56:04;;;;;;;0.10;0.10;;;;;;;-0.27;70.85;99828.50;6236404;23;20048;-65
2022/11/04 05:58:31;;;;;;;0.20;0.20;;;;;;;-0.22;70.86;99817.94;6206313;23;20031;-66
2022/11/04 06:01:21;;;;;;;0.22;0.10;;;;;;;-0.19;70.51;99827.47;6209811;23;20103;-64
2022/11/04 06:03:47;;;;;;;0.40;0.20;;;;;;;-0.16;70.36;99829.75;6236452;23;20024;-64
2022/11/04 06:06:13;;;;;;;0.10;0.10;;;;;;;-0.16;70.31;99827.91;6246056;23;20016;-65
2022/11/04 06:08:39;;;;;;;0.10;0.10;;;;;;;-0.16;70.24;99827.06;6246688;23;20082;-64
2022/11/04 06:11:05;;;;;;;0.17;0.13;;;;;;;-0.18;70.12;99816.50;6246765;23;20026;-64
2022/11/04 06:13:33;;;;;;;0.10;0.10;;;;;;;-0.15;70.26;99828.72;6208618;23;20051;-64
2022/11/04 06:15:59;;;;;;;0.30;0.20;;;;;;;-0.15;70.19;99823.34;6209700;23;20095;-64
2022/11/04 06:18:25;;;;;;;0.35;0.10;;;;;;;-0.15;70.17;99823.34;6235549;23;20112;-64
2022/11/04 06:21:05;;;;;;;0.30;0.20;;;;;;;-0.18;70.32;99824.56;6181320;23;20086;-67
2022/11/04 06:23:31;;;;;;;0.10;0.10;;;;;;;-0.23;70.42;99827.03;6234391;23;20032;-64
2022/11/04 06:25:57;;;;;;;0.10;0.10;;;;;;;-0.19;70.69;99830.16;6247175;23;20533;-64
2022/11/04 06:28:23;;;;;;;0.10;0.10;;;;;;;-0.15;70.61;99828.72;6247976;23;20027;-68
2022/11/04 06:30:51;;;;;;;0.20;0.20;;;;;;;-0.06;70.38;99823.97;6239016;23;20039;-68
2022/11/04 06:33:17;;;;;;;0.20;0.20;;;;;;;-0.03;70.56;99828.94;6239083;23;20020;-68
2022/11/04 06:35:43;;;;;;;0.15;0.13;;;;;;;0.06;70.29;99829.56;6237547;23;20147;-68
2022/11/04 06:38:09;;;;;;;0.15;0.15;;;;;;;0.10;70.42;99828.16;6234851;23;20487;-69
2022/11/04 06:40:35;;;;;;;0.40;0.20;;;;;;;0.08;70.40;99832.88;6243795;23;20387;-68
2022/11/04 06:43:02;;;;;;;0.20;0.20;;;;;;;0.08;70.51;99835.56;6208495;23;20028;-68
2022/11/04 06:45:28;;;;;;;0.10;0.10;;;;;;;0.06;70.49;99843.88;6234102;23;20382;-68
2022/11/04 06:47:55;;;;;;;0.10;0.10;;;;;;;0.10;70.53;99841.59;6183261;23;20055;-68
2022/11/04 06:50:21;;;;;;;0.10;0.10;;;;;;;0.11;70.45;99843.25;6209303;23;20020;-68
2022/11/04 06:52:47;;;;;;;0.20;0.20;;;;;;;0.10;70.24;99842.41;6238876;23;20026;-67
2022/11/04 06:55:13;;;;;;;1.27;0.40;;;;;;;0.09;70.28;99845.31;6235355;23;20020;-68
2022/11/04 06:57:39;;;;;;;0.10;0.10;;;;;;;0.10;70.32;99852.34;6245906;23;20074;-69
2022/11/04 07:00:07;;;;;;;0.10;0.10;;;;;;;0.11;70.30;99849.44;6193963;23;20024;-68
2022/11/04 07:02:33;;;;;;;0.10;0.10;;;;;;;0.14;70.08;99857.09;6237798;23;20023;-68
2022/11/04 07:05:03;;;;;;;0.30;0.20;;;;;;;0.12;69.97;99851.09;6211059;23;20364;-68
2022/11/04 07:07:30;;;;;;;0.15;0.15;;;;;;;0.14;69.77;99857.09;6213891;23;20028;-69
2022/11/04 07:09:56;;;;;;;0.38;0.22;;;;;;;0.17;69.97;99860.44;6238642;23;20419;-69
2022/11/04 07:12:23;;;;;;;0.10;0.10;;;;;;;0.18;70.02;99859.41;6249611;23;20042;-64
2022/11/04 07:14:50;;;;;;;0.17;0.17;;;;;;;0.20;69.79;99863.53;6162910;23;20028;-68
2022/11/04 07:17:16;;;;;;;0.15;0.15;;;;;;;0.25;69.80;99863.75;6233474;23;20586;-64
2022/11/04 07:19:44;;;;;;;0.10;0.10;;;;;;;0.27;69.60;99861.69;6235146;23;20519;-64
2022/11/04 07:22:11;;;;;;;0.10;0.10;;;;;;;0.26;69.68;99868.09;6244913;23;20027;-64
2022/11/04 07:24:37;;;;;;;;;;;;;;;0.32;69.48;99860.22;6234627;23;20024;-64
2022/11/04 07:27:05;;;;;;;0.20;0.20;;;;;;;0.36;69.26;99856.94;6236792;23;20397;-68
2022/11/04 07:29:31;;;;;;;;;;;;;;;0.42;68.88;99861.47;6246294;23;20082;-69
2022/11/04 07:31:57;;;;;;;0.28;0.20;;;;;;;0.38;68.82;99865.63;6241611;23;20259;-69
2022/11/04 07:34:23;;;;;;;0.17;0.10;;;;;;;0.35;69.14;99855.28;6215629;23;20396;-68
2022/11/04 07:36:49;;;;;;;0.35;0.20;;;;;;;0.33;69.40;99857.34;6233404;23;20158;-68
2022/11/04 07:39:16;;;;;;;0.10;0.10;;;;;;;0.33;69.57;99854.66;6231785;23;20143;-68
2022/11/04 07:41:43;;;;;;;0.20;0.20;;;;;;;0.34;69.71;99863.53;6243587;23;20019;-68
2022/11/04 07:44:10;;;;;;;0.20;0.20;;;;;;;0.37;69.52;99853.19;6235495;23;20024;-68
2022/11/04 07:46:36;;;;;;;0.10;0.10;;;;;;;0.38;69.52;99859.41;6245198;23;20406;-68
2022/11/04 07:49:02;;;;;;;0.10;0.10;;;;;;;0.40;69.53;99854.66;6233553;23;20027;-68
2022/11/04 07:51:31;;;;;;;0.30;0.10;;;;;;;0.40;69.33;99852.78;6216628;23;20107;-69
2022/11/04 07:53:58;;;;;;;0.10;0.10;;;;;;;0.43;69.30;99862.31;6207771;23;20107;-64
2022/11/04 07:56:26;;;;;;;0.20;0.20;;;;;;;0.44;69.28;99863.13;6160415;23;20027;-68
2022/11/04 07:58:52;;;;;;;0.20;0.20;;;;;;;0.46;69.21;99855.69;6245107;23;20561;-68
2022/11/04 08:01:22;;;;;;;0.10;0.10;;;;;;;0.43;69.48;99856.94;6246673;23;20027;-69
2022/11/04 08:03:49;;;;;;;0.20;0.20;;;;;;;0.32;69.72;99846.78;6238123;23;20024;-68
2022/11/04 08:06:16;;;;;;;0.10;0.10;;;;;;;0.46;69.53;99856.50;6235904;23;20053;-69
2022/11/04 08:08:43;;;;;;;0.13;0.13;;;;;;;0.50;69.73;99867.69;6200706;23;20293;-64
2022/11/04 08:11:11;;;;;;;0.10;0.10;;;;;;;0.52;69.58;99861.06;6183484;23;20088;-64
2022/11/04 08:13:39;;;;;;;0.10;0.10;;;;;;;0.53;69.74;99854.63;6211188;23;20329;-68
2022/11/04 08:16:09;;;;;;;0.10;0.10;;;;;;;0.54;69.98;99855.47;6236203;23;20020;-65
2022/11/04 08:18:35;;;;;;;0.40;0.10;;;;;;;0.56;69.72;99864.16;6234923;23;20501;-64
2022/11/04 08:21:03;;;;;;;0.10;0.10;;;;;;;0.59;69.70;99852.97;6232728;23;20588;-65
2022/11/04 08:23:29;;;;;;;0.30;0.20;;;;;;;0.62;69.73;99854.44;6232920;23;20107;-64
2022/11/04 08:25:56;;;;;;;0.20;0.20;;;;;;;0.66;69.79;99856.53;6245722;23;20026;-64
2022/11/04 08:28:23;;;;;;;0.10;0.10;;;;;;;0.72;69.90;99848.63;6235787;23;20024;-64
2022/11/04 08:30:55;;;;;;;0.30;0.20;;;;;;;0.76;69.58;99850.72;6247622;23;20468;-64
2022/11/04 08:33:22;;;;;;;0.15;0.15;;;;;;;0.79;69.73;99847.59;6206090;23;20027;-68
2022/11/04 08:35:49;;;;;;;0.10;0.10;;;;;;;0.81;69.64;99850.91;6207637;23;20016;-68
2022/11/04 08:38:15;;;;;;;0.28;0.20;;;;;;;0.83;69.94;99853.41;6233980;23;20025;-68
2022/11/04 08:40:41;;;;;;;0.10;0.10;;;;;;;0.87;69.74;99851.94;6207470;23;20103;-64
2022/11/04 08:43:09;;;;;;;0.10;0.10;;;;;;;0.91;69.68;99844.28;6189403;23;20371;-64
2022/11/04 08:45:39;;;;;;;0.30;0.17;;;;;;;0.92;69.54;99841.34;6207153;23;20023;-64
2022/11/04 08:48:07;;;;;;;0.10;0.10;;;;;;;0.93;69.42;99848.38;6209851;23;20183;-64
2022/11/04 08:50:33;;;;;;;0.10;0.10;;;;;;;0.92;69.67;99848.63;6244851;23;20043;-64
2022/11/04 08:52:59;;;;;;;0.45;0.10;;;;;;;0.92;69.54;99845.94;6231984;23;20020;-64
2022/11/04 08:55:28;;;;;;;0.22;0.20;;;;;;;0.88;69.78;99850.88;6233248;23;20030;-64
2022/11/04 08:57:54;;;;;;;0.10;0.10;;;;;;;0.85;69.69;99843.25;6180560;23;20024;-64
2022/11/04 09:00:20;;;;;;;0.10;0.10;;;;;;;0.88;69.86;99844.69;6240876;23;20039;-64
2022/11/04 09:02:46;;;;;;;0.28;0.28;;;;;;;0.88;69.85;99845.50;6209252;23;20479;-65
2022/11/04 09:05:14;;;;;;;0.20;0.20;;;;;;;0.83;69.72;99838.06;6216170;23;20024;-64
2022/11/04 09:07:40;;;;;;;0.10;0.10;;;;;;;0.92;69.75;99841.34;6234766;23;20027;-68
2022/11/04 09:10:08;;;;;;;0.10;0.10;;;;;;;0.95;69.62;99842.81;6232304;23;20359;-68
2022/11/04 09:12:34;;;;;;;0.20;0.20;;;;;;;0.96;69.50;99842.59;6232548;23;20344;-68
2022/11/04 09:15:00;;;;;;;0.57;0.15;;;;;;;0.95;69.63;99846.34;6243403;23;20050;-69
2022/11/04 09:17:26;;;;;;;0.45;0.10;;;;;;;0.93;69.69;99844.88;6243175;23;20020;-68
2022/11/04 09:19:52;;;;;;;0.10;0.10;;;;;;;0.95;69.52;99848.19;6244458;23;20020;-69
2022/11/04 09:22:20;;;;;;;0.10;0.10;;;;;;;0.94;69.76;99851.94;6232600;23;20044;-64
2022/11/04 09:24:47;;;;;;;0.65;0.10;;;;;;;0.95;69.84;99850.88;6232680;23;20024;-64
2022/11/04 09:27:13;;;;;;;0.17;0.17;;;;;;;0.95;69.94;99843.66;6232446;23;20024;-64
2022/11/04 09:29:40;;;;;;;0.10;0.10;;;;;;;0.97;69.96;99841.56;6232243;23;20020;-64
2022/11/04 09:32:06;;;;;;;0.13;0.13;;;;;;;1.00;70.15;99843.00;6242092;23;20046;-64
2022/11/04 09:34:33;;;;;;;0.10;0.10;;;;;;;1.08;70.06;99844.63;6241522;23;20058;-64
2022/11/04 09:37:00;;;;;;;0.10;0.10;;;;;;;1.12;69.83;99844.00;6233389;23;20020;-64
2022/11/04 09:39:27;;;;;;;0.20;0.10;;;;;;;1.15;69.65;99839.22;6227997;23;20663;-65
2022/11/04 09:42:12;;;;;;;0.45;0.28;;;;;;;1.11;69.85;99842.34;6234128;23;20450;-68
2022/11/04 09:44:47;;;;;;;0.10;0.10;;;;;;;1.10;70.02;99838.00;6202100;23;20031;-69
2022/11/04 09:47:15;;;;;;;0.10;0.10;;;;;;;1.11;70.02;99844.22;6229431;23;20329;-69
2022/11/04 09:49:43;;;;;;;;;;;;;;;1.11;70.05;99841.53;6228164;23;20122;-68
2022/11/04 09:52:16;;;;;;;0.20;0.20;;;;;;;1.12;69.97;99837.81;6221122;23;20006;-65
2022/11/04 09:54:53;;;;;;;0.10;0.10;;;;;;;1.11;69.85;99842.34;6243739;23;20028;-68
2022/11/04 09:57:20;;;;;;;0.22;0.20;;;;;;;1.06;69.88;99839.47;6189524;23;20206;-68
2022/11/04 09:59:47;;;;;;;0.10;0.10;;;;;;;1.01;69.98;99841.13;6226787;23;20342;-68
2022/11/04 10:02:39;;;;;;;0.10;0.10;;;;;;;0.98;70.23;99843.22;6227652;23;20043;-69
2022/11/04 10:05:19;;;;;;;0.10;0.10;;;;;;;1.02;70.34;99840.09;6238265;23;20456;-68
2022/11/04 10:07:58;;;;;;;0.10;0.10;;;;;;;1.05;70.25;99845.06;6230945;23;20020;-68
2022/11/04 10:10:35;;;;;;;0.47;0.10;;;;;;;1.08;70.16;99847.31;6238915;23;20044;-69
2022/11/04 10:13:21;;;;;;;0.10;0.10;;;;;;;0.89;70.44;99835.59;6245316;23;20028;-68
2022/11/04 10:16:05;;;;;;;0.10;0.10;;;;;;;0.98;70.58;99851.31;6238028;23;20459;-68
2022/11/04 10:18:59;;;;;;;0.57;0.20;;;;;;;1.01;70.66;99850.03;6207322;23;20016;-68
2022/11/04 10:21:37;;;;;;;0.30;0.20;;;;;;;1.00;70.36;99845.69;6245839;23;20028;-69
2022/11/04 10:24:16;;;;;;;0.20;0.20;;;;;;;0.99;70.44;99844.88;6238250;23;20051;-69
2022/11/04 10:26:46;;;;;;;0.10;0.10;;;;;;;1.00;70.68;99843.00;6248096;23;20004;-69
2022/11/04 10:29:18;;;;;;;0.10;0.10;;;;;;;1.05;70.76;99850.44;6208571;23;20546;-68
2022/11/04 10:31:46;;;;;;;0.10;0.10;;;;;;;1.04;70.66;99838.88;6209275;23;20404;-68
2022/11/04 10:34:26;;;;;;;0.10;0.10;;;;;;;1.04;70.50;99848.78;6238216;23;20043;-69
2022/11/04 10:36:55;;;;;;;0.45;0.10;;;;;;;1.02;70.61;99849.03;6239458;23;20050;-69
2022/11/04 10:39:27;;;;;;;0.10;0.10;;;;;;;0.98;70.65;99845.91;6246573;23;20073;-68
2022/11/04 10:41:57;;;;;;;0.10;0.10;;;;;;;0.97;70.71;99851.50;6217156;23;20020;-69
2022/11/04 10:44:26;;;;;;;0.10;0.10;;;;;;;0.94;70.88;99846.53;6206327;23;20368;-68
2022/11/04 10:47:13;;;;;;;0.47;0.22;;;;;;;0.99;70.69;99846.72;6234097;23;20020;-69
2022/11/04 10:49:45;;;;;;;;;;;;;;;0.94;71.11;99839.31;6236337;23;20020;-69
2022/11/04 10:52:11;;;;;;;0.70;0.28;;;;;;;0.93;70.91;99843.00;6244068;23;19927;-69
2022/11/04 10:54:40;;;;;;;0.10;0.10;;;;;;;0.93;70.81;99840.31;6233285;23;20016;-64
2022/11/04 10:57:09;;;;;;;0.75;0.10;;;;;;;0.91;71.30;99844.28;6216946;23;20102;-64
2022/11/04 10:59:47;;;;;;;0.10;0.10;;;;;;;0.97;70.77;99846.94;6243976;23;20111;-64
2022/11/04 11:02:14;;;;;;;0.10;0.10;;;;;;;1.04;70.81;99840.72;6213066;23;20082;-64
2022/11/04 11:04:40;;;;;;;0.10;0.10;;;;;;;1.10;70.50;99845.28;6231095;23;20028;-65
2022/11/04 11:07:09;;;;;;;0.10;0.10;;;;;;;1.18;70.61;99841.53;6180458;23;20020;-64
2022/11/04 11:09:47;;;;;;;0.10;0.10;;;;;;;1.24;70.06;99840.66;6231761;23;20099;-65
2022/11/04 11:12:25;;;;;;;0.10;0.10;;;;;;;1.29;69.75;99840.03;6217741;23;20094;-68
2022/11/04 11:14:52;;;;;;;0.10;0.10;;;;;;;1.33;69.60;99838.56;6233787;23;20411;-68
2022/11/04 11:17:22;;;;;;;0.80;0.10;;;;;;;1.35;69.63;99840.00;6188503;23;20030;-69
2022/11/04 11:19:53;;;;;;;0.10;0.10;;;;;;;1.36;69.81;99843.53;6239619;23;20028;-69
2022/11/04 11:22:33;;;;;;;0.10;0.10;;;;;;;1.37;69.58;99845.16;6230393;23;21983;-68
2022/11/04 11:25:23;;;;;;;0.10;0.10;;;;;;;1.40;69.51;99842.03;6209029;23;20020;-64
2022/11/04 11:27:52;;;;;;;0.30;0.15;;;;;;;1.41;69.69;99841.03;6229179;23;20450;-64
2022/11/04 11:30:21;;;;;;;0.10;0.10;;;;;;;1.38;69.75;99850.34;6231201;23;20028;-64
2022/11/04 11:32:55;;;;;;;0.20;0.20;;;;;;;1.35;69.55;99844.56;6231383;23;20048;-64
2022/11/04 11:35:24;;;;;;;0.10;0.10;;;;;;;1.36;69.64;99851.59;6241209;23;20027;-64
2022/11/04 11:37:51;;;;;;;0.75;0.20;;;;;;;1.29;69.54;99846.22;6203857;23;20116;-64
2022/11/04 11:40:30;;;;;;;0.20;0.20;;;;;;;1.32;69.53;99845.81;6213330;23;20020;-64
2022/11/04 11:42:59;;;;;;;0.40;0.20;;;;;;;1.33;69.81;99860.13;6205981;23;20051;-68
2022/11/04 11:45:27;;;;;;;0.10;0.10;;;;;;;1.33;69.78;99857.41;6245054;23;20036;-69
2022/11/04 11:47:54;;;;;;;0.10;0.10;;;;;;;1.29;69.76;99848.94;6233582;23;20515;-68
2022/11/04 11:50:29;;;;;;;0.10;0.10;;;;;;;1.22;69.78;99846.25;6232120;23;20024;-69
2022/11/04 11:53:12;;;;;;;0.10;0.10;;;;;;;1.18;69.85;99853.09;6231316;23;20031;-69
2022/11/04 11:55:46;;;;;;;0.10;0.10;;;;;;;1.13;69.88;99859.13;6206068;23;20356;-69
2022/11/04 11:58:24;;;;;;;0.20;0.20;;;;;;;1.11;70.24;99861.22;6230339;23;20024;-69
2022/11/04 12:00:53;;;;;;;0.10;0.10;;;;;;;1.07;70.50;99870.75;6243587;23;20024;-68
2022/11/04 12:03:29;;;;;;;0.10;0.10;;;;;;;1.08;70.59;99871.56;6201068;23;20053;-68
2022/11/04 12:06:13;;;;;;;0.22;0.20;;;;;;;1.11;70.50;99871.97;6240019;23;20024;-68
2022/11/04 12:09:03;;;;;;;0.17;0.17;;;;;;;1.08;70.61;99867.03;6175910;23;20531;-69
2022/11/04 12:11:41;;;;;;;0.20;0.13;;;;;;;1.06;70.61;99874.47;6200855;23;20016;-68
2022/11/04 12:14:14;;;;;;;0.22;0.22;;;;;;;1.00;70.65;99878.00;6211162;23;20031;-64
2022/11/04 12:16:51;;;;;;;0.10;0.10;;;;;;;1.01;70.62;99873.47;6228775;23;20028;-64
2022/11/04 12:19:32;;;;;;;0.30;0.20;;;;;;;1.02;70.79;99873.25;6225850;23;20078;-64
2022/11/04 12:22:08;;;;;;;0.10;0.10;;;;;;;1.03;70.70;99882.16;6202494;23;20047;-64
2022/11/04 12:24:44;;;;;;;0.10;0.10;;;;;;;0.98;70.81;99872.84;6227891;23;20020;-64
2022/11/04 12:27:20;;;;;;;0.10;0.10;;;;;;;0.96;71.02;99879.47;6206014;23;20456;-69
2022/11/04 12:30:00;;;;;;;0.10;0.10;;;;;;;0.85;70.97;99854.81;6231117;23;20020;-69
2022/11/04 12:32:31;;;;;;;0.10;0.10;;;;;;;0.94;71.20;99873.47;6239056;23;20024;-69